<?xml version="1.0" encoding="UTF-8" standalone="no" ?>
<gpx xmlns="http://www.topografix.com/GPX/1/1" xmlns:xsi="http://www.w3.org/2001/XMLSchema-instance" xsi:schemaLocation="http://www.topografix.com/GPX/1/1 http://www.topografix.com/GPX/1/1/gpx.xsd" version="1.1" creator="VisuGPX - https://www.visugpx.com">
  <metadata>
    <name>La VAB 01</name>
    <desc><![CDATA[1ere sortie VTT, découverte du parcours et des cales automatiques.
Bilan 4 gamelles]]></desc>
  </metadata>
  <trk>
    <name><![CDATA[VAB 01]]></name>
    <desc><![CDATA[Premiere sortie / 4 gamelles]]></desc>
    <trkseg>
      <trkpt lat="45.78879" lon="2.99724">
        <ele>910.469604</ele>
        <time>2011-11-12T12:55:48Z</time>
      </trkpt>
      <trkpt lat="45.78879" lon="2.99724">
        <ele>910.469604</ele>
        <time>2011-11-12T12:55:49Z</time>
      </trkpt>
      <trkpt lat="45.7897" lon="2.99714">
        <ele>907.15863</ele>
        <time>2011-11-12T12:57:22Z</time>
      </trkpt>
      <trkpt lat="45.7905" lon="2.99656">
        <ele>907.749817</ele>
        <time>2011-11-12T12:57:58Z</time>
      </trkpt>
      <trkpt lat="45.79139" lon="2.99627">
        <ele>921.310364</ele>
        <time>2011-11-12T12:58:48Z</time>
      </trkpt>
      <trkpt lat="45.79217" lon="2.99558">
        <ele>919.21698</ele>
        <time>2011-11-12T12:59:32Z</time>
      </trkpt>
      <trkpt lat="45.79242" lon="2.99432">
        <ele>918.365173</ele>
        <time>2011-11-12T13:00:08Z</time>
      </trkpt>
      <trkpt lat="45.79303" lon="2.99336">
        <ele>921.721375</ele>
        <time>2011-11-12T13:00:48Z</time>
      </trkpt>
      <trkpt lat="45.79353" lon="2.99227">
        <ele>927.687927</ele>
        <time>2011-11-12T13:01:25Z</time>
      </trkpt>
      <trkpt lat="45.79422" lon="2.99138">
        <ele>934.443481</ele>
        <time>2011-11-12T13:02:02Z</time>
      </trkpt>
      <trkpt lat="45.7948" lon="2.99038">
        <ele>940.580994</ele>
        <time>2011-11-12T13:02:35Z</time>
      </trkpt>
      <trkpt lat="45.79515" lon="2.98916">
        <ele>937.251648</ele>
        <time>2011-11-12T13:03:09Z</time>
      </trkpt>
      <trkpt lat="45.79557" lon="2.988">
        <ele>934.132812</ele>
        <time>2011-11-12T13:03:39Z</time>
      </trkpt>
      <trkpt lat="45.79647" lon="2.98773">
        <ele>933.550293</ele>
        <time>2011-11-12T13:04:23Z</time>
      </trkpt>
      <trkpt lat="45.79717" lon="2.98859">
        <ele>940.528259</ele>
        <time>2011-11-12T13:04:58Z</time>
      </trkpt>
      <trkpt lat="45.79807" lon="2.98876">
        <ele>952.313538</ele>
        <time>2011-11-12T13:05:35Z</time>
      </trkpt>
      <trkpt lat="45.79833" lon="2.9875">
        <ele>960.759277</ele>
        <time>2011-11-12T13:06:34Z</time>
      </trkpt>
      <trkpt lat="45.7986" lon="2.98626">
        <ele>958.062622</ele>
        <time>2011-11-12T13:06:54Z</time>
      </trkpt>
      <trkpt lat="45.79827" lon="2.98506">
        <ele>957.320679</ele>
        <time>2011-11-12T13:07:17Z</time>
      </trkpt>
      <trkpt lat="45.79807" lon="2.9838">
        <ele>956.212219</ele>
        <time>2011-11-12T13:07:53Z</time>
      </trkpt>
      <trkpt lat="45.79897" lon="2.98358">
        <ele>957.772461</ele>
        <time>2011-11-12T13:08:33Z</time>
      </trkpt>
      <trkpt lat="45.79993" lon="2.98351">
        <ele>962.009521</ele>
        <time>2011-11-12T13:08:48Z</time>
      </trkpt>
      <trkpt lat="45.8008" lon="2.98383">
        <ele>959.607605</ele>
        <time>2011-11-12T13:09:05Z</time>
      </trkpt>
      <trkpt lat="45.80173" lon="2.98388">
        <ele>967.690674</ele>
        <time>2011-11-12T13:09:37Z</time>
      </trkpt>
      <trkpt lat="45.80246" lon="2.98464">
        <ele>978.037048</ele>
        <time>2011-11-12T13:10:19Z</time>
      </trkpt>
      <trkpt lat="45.80337" lon="2.98456">
        <ele>976.233826</ele>
        <time>2011-11-12T13:10:42Z</time>
      </trkpt>
      <trkpt lat="45.80343" lon="2.98324">
        <ele>975.719666</ele>
        <time>2011-11-12T13:11:42Z</time>
      </trkpt>
      <trkpt lat="45.80379" lon="2.98203">
        <ele>984.072693</ele>
        <time>2011-11-12T13:12:10Z</time>
      </trkpt>
      <trkpt lat="45.80403" lon="2.98077">
        <ele>992.360535</ele>
        <time>2011-11-12T13:13:02Z</time>
      </trkpt>
      <trkpt lat="45.80444" lon="2.9796">
        <ele>1011.585876</ele>
        <time>2011-11-12T13:14:22Z</time>
      </trkpt>
      <trkpt lat="45.80458" lon="2.97829">
        <ele>1015.277283</ele>
        <time>2011-11-12T13:15:15Z</time>
      </trkpt>
      <trkpt lat="45.80459" lon="2.977">
        <ele>1018.392883</ele>
        <time>2011-11-12T13:16:07Z</time>
      </trkpt>
      <trkpt lat="45.80462" lon="2.9757">
        <ele>1023.415833</ele>
        <time>2011-11-12T13:16:39Z</time>
      </trkpt>
      <trkpt lat="45.80411" lon="2.97457">
        <ele>1013.160217</ele>
        <time>2011-11-12T13:17:13Z</time>
      </trkpt>
      <trkpt lat="45.80377" lon="2.97338">
        <ele>1013.957458</ele>
        <time>2011-11-12T13:17:33Z</time>
      </trkpt>
      <trkpt lat="45.80361" lon="2.9721">
        <ele>1014.403625</ele>
        <time>2011-11-12T13:18:01Z</time>
      </trkpt>
      <trkpt lat="45.80341" lon="2.97082">
        <ele>1020.86908</ele>
        <time>2011-11-12T13:18:31Z</time>
      </trkpt>
      <trkpt lat="45.80311" lon="2.96959">
        <ele>1028.786377</ele>
        <time>2011-11-12T13:18:57Z</time>
      </trkpt>
      <trkpt lat="45.80276" lon="2.9684">
        <ele>1028.175171</ele>
        <time>2011-11-12T13:19:22Z</time>
      </trkpt>
      <trkpt lat="45.80241" lon="2.96721">
        <ele>1037.738647</ele>
        <time>2011-11-12T13:19:49Z</time>
      </trkpt>
      <trkpt lat="45.80175" lon="2.96632">
        <ele>1039.042725</ele>
        <time>2011-11-12T13:20:35Z</time>
      </trkpt>
      <trkpt lat="45.80102" lon="2.96555">
        <ele>1040.056763</ele>
        <time>2011-11-12T13:21:01Z</time>
      </trkpt>
      <trkpt lat="45.80018" lon="2.96502">
        <ele>1046.726685</ele>
        <time>2011-11-12T13:21:28Z</time>
      </trkpt>
      <trkpt lat="45.79929" lon="2.96472">
        <ele>1052.248169</ele>
        <time>2011-11-12T13:21:56Z</time>
      </trkpt>
      <trkpt lat="45.79845" lon="2.96424">
        <ele>1042.769897</ele>
        <time>2011-11-12T13:22:29Z</time>
      </trkpt>
      <trkpt lat="45.79754" lon="2.96402">
        <ele>1059.848022</ele>
        <time>2011-11-12T13:23:03Z</time>
      </trkpt>
      <trkpt lat="45.79664" lon="2.96412">
        <ele>1072.206299</ele>
        <time>2011-11-12T13:23:30Z</time>
      </trkpt>
      <trkpt lat="45.79576" lon="2.96443">
        <ele>1067.138672</ele>
        <time>2011-11-12T13:23:52Z</time>
      </trkpt>
      <trkpt lat="45.79496" lon="2.9651">
        <ele>1061.727783</ele>
        <time>2011-11-12T13:24:13Z</time>
      </trkpt>
      <trkpt lat="45.79436" lon="2.96611">
        <ele>1057.455933</ele>
        <time>2011-11-12T13:24:36Z</time>
      </trkpt>
      <trkpt lat="45.79391" lon="2.96725">
        <ele>1065.535889</ele>
        <time>2011-11-12T13:25:19Z</time>
      </trkpt>
      <trkpt lat="45.79343" lon="2.96836">
        <ele>1077.633911</ele>
        <time>2011-11-12T13:26:11Z</time>
      </trkpt>
      <trkpt lat="45.79321" lon="2.96712">
        <ele>1079.622803</ele>
        <time>2011-11-12T13:27:17Z</time>
      </trkpt>
      <trkpt lat="45.7931" lon="2.96581">
        <ele>1079.322021</ele>
        <time>2011-11-12T13:28:05Z</time>
      </trkpt>
      <trkpt lat="45.79308" lon="2.96451">
        <ele>1080.043213</ele>
        <time>2011-11-12T13:28:48Z</time>
      </trkpt>
      <trkpt lat="45.79287" lon="2.96326">
        <ele>1089.733887</ele>
        <time>2011-11-12T13:29:43Z</time>
      </trkpt>
      <trkpt lat="45.7925" lon="2.96206">
        <ele>1094.033936</ele>
        <time>2011-11-12T13:30:37Z</time>
      </trkpt>
      <trkpt lat="45.79235" lon="2.96078">
        <ele>1104.531006</ele>
        <time>2011-11-12T13:31:28Z</time>
      </trkpt>
      <trkpt lat="45.79244" lon="2.95947">
        <ele>1096.93396</ele>
        <time>2011-11-12T13:34:07Z</time>
      </trkpt>
      <trkpt lat="45.79279" lon="2.95826">
        <ele>1103.205566</ele>
        <time>2011-11-12T13:34:50Z</time>
      </trkpt>
      <trkpt lat="45.79337" lon="2.95725">
        <ele>1105.736206</ele>
        <time>2011-11-12T13:35:19Z</time>
      </trkpt>
      <trkpt lat="45.79412" lon="2.95655">
        <ele>1098.216064</ele>
        <time>2011-11-12T13:35:46Z</time>
      </trkpt>
      <trkpt lat="45.79491" lon="2.95588">
        <ele>1074.974854</ele>
        <time>2011-11-12T13:37:35Z</time>
      </trkpt>
      <trkpt lat="45.79562" lon="2.95508">
        <ele>1048.267334</ele>
        <time>2011-11-12T13:38:09Z</time>
      </trkpt>
      <trkpt lat="45.79636" lon="2.9543">
        <ele>1031.396606</ele>
        <time>2011-11-12T13:40:10Z</time>
      </trkpt>
      <trkpt lat="45.79688" lon="2.95321">
        <ele>1003.820129</ele>
        <time>2011-11-12T13:40:45Z</time>
      </trkpt>
      <trkpt lat="45.79668" lon="2.95194">
        <ele>995.149719</ele>
        <time>2011-11-12T13:45:37Z</time>
      </trkpt>
      <trkpt lat="45.79614" lon="2.9509">
        <ele>996.527771</ele>
        <time>2011-11-12T13:46:13Z</time>
      </trkpt>
      <trkpt lat="45.79549" lon="2.94999">
        <ele>1002.380554</ele>
        <time>2011-11-12T13:46:51Z</time>
      </trkpt>
      <trkpt lat="45.79492" lon="2.94897">
        <ele>1007.880554</ele>
        <time>2011-11-12T13:47:27Z</time>
      </trkpt>
      <trkpt lat="45.79425" lon="2.94806">
        <ele>1020.882263</ele>
        <time>2011-11-12T13:48:17Z</time>
      </trkpt>
      <trkpt lat="45.79358" lon="2.9472">
        <ele>1016.348694</ele>
        <time>2011-11-12T13:48:52Z</time>
      </trkpt>
      <trkpt lat="45.79296" lon="2.94625">
        <ele>1018.006775</ele>
        <time>2011-11-12T13:49:27Z</time>
      </trkpt>
      <trkpt lat="45.79233" lon="2.94531">
        <ele>1020.967224</ele>
        <time>2011-11-12T13:50:00Z</time>
      </trkpt>
      <trkpt lat="45.79159" lon="2.94455">
        <ele>1022.463684</ele>
        <time>2011-11-12T13:50:34Z</time>
      </trkpt>
      <trkpt lat="45.79068" lon="2.94425">
        <ele>1030.470459</ele>
        <time>2011-11-12T13:51:07Z</time>
      </trkpt>
      <trkpt lat="45.78977" lon="2.94413">
        <ele>1044.712646</ele>
        <time>2011-11-12T13:51:48Z</time>
      </trkpt>
      <trkpt lat="45.78884" lon="2.94407">
        <ele>1038.14624</ele>
        <time>2011-11-12T13:52:34Z</time>
      </trkpt>
      <trkpt lat="45.78797" lon="2.94446">
        <ele>1035.417114</ele>
        <time>2011-11-12T13:53:39Z</time>
      </trkpt>
      <trkpt lat="45.78703" lon="2.94454">
        <ele>1027.977417</ele>
        <time>2011-11-12T13:54:02Z</time>
      </trkpt>
      <trkpt lat="45.78634" lon="2.94541">
        <ele>1022.996399</ele>
        <time>2011-11-12T13:54:32Z</time>
      </trkpt>
      <trkpt lat="45.78611" lon="2.94666">
        <ele>1031.426392</ele>
        <time>2011-11-12T13:55:04Z</time>
      </trkpt>
      <trkpt lat="45.78625" lon="2.94795">
        <ele>1048.047974</ele>
        <time>2011-11-12T13:55:42Z</time>
      </trkpt>
      <trkpt lat="45.78653" lon="2.94917">
        <ele>1049.1875</ele>
        <time>2011-11-12T13:56:19Z</time>
      </trkpt>
      <trkpt lat="45.78627" lon="2.95041">
        <ele>1048.622437</ele>
        <time>2011-11-12T13:56:58Z</time>
      </trkpt>
      <trkpt lat="45.78627" lon="2.95171">
        <ele>1049.979736</ele>
        <time>2011-11-12T13:57:38Z</time>
      </trkpt>
      <trkpt lat="45.78615" lon="2.95299">
        <ele>1050.895142</ele>
        <time>2011-11-12T13:58:09Z</time>
      </trkpt>
      <trkpt lat="45.78617" lon="2.95432">
        <ele>1044.798462</ele>
        <time>2011-11-12T13:58:24Z</time>
      </trkpt>
      <trkpt lat="45.78596" lon="2.95559">
        <ele>1045.758057</ele>
        <time>2011-11-12T13:58:54Z</time>
      </trkpt>
      <trkpt lat="45.78588" lon="2.9569">
        <ele>1058.643555</ele>
        <time>2011-11-12T13:59:31Z</time>
      </trkpt>
      <trkpt lat="45.78588" lon="2.9582">
        <ele>1059.743896</ele>
        <time>2011-11-12T14:00:10Z</time>
      </trkpt>
      <trkpt lat="45.78501" lon="2.95854">
        <ele>1061.699341</ele>
        <time>2011-11-12T14:00:49Z</time>
      </trkpt>
      <trkpt lat="45.78411" lon="2.95854">
        <ele>1064.415771</ele>
        <time>2011-11-12T14:01:15Z</time>
      </trkpt>
      <trkpt lat="45.7832" lon="2.9585">
        <ele>1067.847534</ele>
        <time>2011-11-12T14:01:41Z</time>
      </trkpt>
      <trkpt lat="45.78231" lon="2.95817">
        <ele>1063.301636</ele>
        <time>2011-11-12T14:02:05Z</time>
      </trkpt>
      <trkpt lat="45.78161" lon="2.9573">
        <ele>1056.17981</ele>
        <time>2011-11-12T14:02:32Z</time>
      </trkpt>
      <trkpt lat="45.78123" lon="2.95612">
        <ele>1069.43457</ele>
        <time>2011-11-12T14:03:03Z</time>
      </trkpt>
      <trkpt lat="45.78078" lon="2.95499">
        <ele>1071.308105</ele>
        <time>2011-11-12T14:03:41Z</time>
      </trkpt>
      <trkpt lat="45.78035" lon="2.95382">
        <ele>1067.322632</ele>
        <time>2011-11-12T14:04:10Z</time>
      </trkpt>
      <trkpt lat="45.77946" lon="2.95334">
        <ele>1058.807983</ele>
        <time>2011-11-12T14:04:30Z</time>
      </trkpt>
      <trkpt lat="45.77866" lon="2.95272">
        <ele>1053.093872</ele>
        <time>2011-11-12T14:04:59Z</time>
      </trkpt>
      <trkpt lat="45.77774" lon="2.95258">
        <ele>1065.944824</ele>
        <time>2011-11-12T14:05:44Z</time>
      </trkpt>
      <trkpt lat="45.77682" lon="2.95244">
        <ele>1058.139038</ele>
        <time>2011-11-12T14:06:18Z</time>
      </trkpt>
      <trkpt lat="45.77595" lon="2.95286">
        <ele>1064.346558</ele>
        <time>2011-11-12T14:06:44Z</time>
      </trkpt>
      <trkpt lat="45.77513" lon="2.95222">
        <ele>1053.078979</ele>
        <time>2011-11-12T14:07:05Z</time>
      </trkpt>
      <trkpt lat="45.77425" lon="2.95193">
        <ele>1061.750122</ele>
        <time>2011-11-12T14:07:32Z</time>
      </trkpt>
      <trkpt lat="45.77333" lon="2.95195">
        <ele>1060.878052</ele>
        <time>2011-11-12T14:08:17Z</time>
      </trkpt>
      <trkpt lat="45.77244" lon="2.95206">
        <ele>1058.56189</ele>
        <time>2011-11-12T14:08:59Z</time>
      </trkpt>
      <trkpt lat="45.77155" lon="2.95233">
        <ele>1069.218994</ele>
        <time>2011-11-12T14:09:43Z</time>
      </trkpt>
      <trkpt lat="45.7707" lon="2.95279">
        <ele>1077.921143</ele>
        <time>2011-11-12T14:10:34Z</time>
      </trkpt>
      <trkpt lat="45.76983" lon="2.95317">
        <ele>1081.327271</ele>
        <time>2011-11-12T14:11:07Z</time>
      </trkpt>
      <trkpt lat="45.76896" lon="2.95363">
        <ele>1075.290527</ele>
        <time>2011-11-12T14:11:21Z</time>
      </trkpt>
      <trkpt lat="45.76804" lon="2.95406">
        <ele>1066.49646</ele>
        <time>2011-11-12T14:11:38Z</time>
      </trkpt>
      <trkpt lat="45.76709" lon="2.95405">
        <ele>1068.814819</ele>
        <time>2011-11-12T14:11:54Z</time>
      </trkpt>
      <trkpt lat="45.76619" lon="2.95443">
        <ele>1069.497559</ele>
        <time>2011-11-12T14:12:08Z</time>
      </trkpt>
      <trkpt lat="45.76536" lon="2.95507">
        <ele>1077.110596</ele>
        <time>2011-11-12T14:12:39Z</time>
      </trkpt>
      <trkpt lat="45.76447" lon="2.95534">
        <ele>1073.870361</ele>
        <time>2011-11-12T14:12:55Z</time>
      </trkpt>
      <trkpt lat="45.76379" lon="2.95622">
        <ele>1067.669678</ele>
        <time>2011-11-12T14:19:18Z</time>
      </trkpt>
      <trkpt lat="45.76299" lon="2.95683">
        <ele>1061.836548</ele>
        <time>2011-11-12T14:20:02Z</time>
      </trkpt>
      <trkpt lat="45.76219" lon="2.95743">
        <ele>1042.109009</ele>
        <time>2011-11-12T14:20:31Z</time>
      </trkpt>
      <trkpt lat="45.76133" lon="2.95796">
        <ele>1037.827759</ele>
        <time>2011-11-12T14:20:56Z</time>
      </trkpt>
      <trkpt lat="45.76073" lon="2.95892">
        <ele>1019.706482</ele>
        <time>2011-11-12T14:23:02Z</time>
      </trkpt>
      <trkpt lat="45.76094" lon="2.9602">
        <ele>994.232483</ele>
        <time>2011-11-12T14:23:57Z</time>
      </trkpt>
      <trkpt lat="45.76079" lon="2.96149">
        <ele>981.46991</ele>
        <time>2011-11-12T14:25:01Z</time>
      </trkpt>
      <trkpt lat="45.76054" lon="2.96277">
        <ele>950.152283</ele>
        <time>2011-11-12T14:25:38Z</time>
      </trkpt>
      <trkpt lat="45.7601" lon="2.96393">
        <ele>960.398621</ele>
        <time>2011-11-12T14:25:56Z</time>
      </trkpt>
      <trkpt lat="45.75945" lon="2.96484">
        <ele>967.398499</ele>
        <time>2011-11-12T14:26:15Z</time>
      </trkpt>
      <trkpt lat="45.75853" lon="2.96512">
        <ele>956.419922</ele>
        <time>2011-11-12T14:26:34Z</time>
      </trkpt>
      <trkpt lat="45.75762" lon="2.96528">
        <ele>959.06012</ele>
        <time>2011-11-12T14:26:51Z</time>
      </trkpt>
      <trkpt lat="45.75672" lon="2.9657">
        <ele>956.604736</ele>
        <time>2011-11-12T14:27:15Z</time>
      </trkpt>
      <trkpt lat="45.75582" lon="2.96617">
        <ele>963.809998</ele>
        <time>2011-11-12T14:27:32Z</time>
      </trkpt>
      <trkpt lat="45.75495" lon="2.96661">
        <ele>956.06842</ele>
        <time>2011-11-12T14:27:49Z</time>
      </trkpt>
      <trkpt lat="45.75406" lon="2.96709">
        <ele>961.394043</ele>
        <time>2011-11-12T14:28:03Z</time>
      </trkpt>
      <trkpt lat="45.75316" lon="2.96737">
        <ele>954.439453</ele>
        <time>2011-11-12T14:28:18Z</time>
      </trkpt>
      <trkpt lat="45.7523" lon="2.96786">
        <ele>945.685974</ele>
        <time>2011-11-12T14:31:38Z</time>
      </trkpt>
      <trkpt lat="45.7514" lon="2.9681">
        <ele>951.256958</ele>
        <time>2011-11-12T14:31:54Z</time>
      </trkpt>
      <trkpt lat="45.7505" lon="2.96835">
        <ele>942.876099</ele>
        <time>2011-11-12T14:32:13Z</time>
      </trkpt>
      <trkpt lat="45.74958" lon="2.9686">
        <ele>940.205383</ele>
        <time>2011-11-12T14:32:35Z</time>
      </trkpt>
      <trkpt lat="45.74869" lon="2.96887">
        <ele>943.378052</ele>
        <time>2011-11-12T14:32:56Z</time>
      </trkpt>
      <trkpt lat="45.74779" lon="2.96924">
        <ele>935.767822</ele>
        <time>2011-11-12T14:33:15Z</time>
      </trkpt>
      <trkpt lat="45.74692" lon="2.96969">
        <ele>939.348694</ele>
        <time>2011-11-12T14:33:33Z</time>
      </trkpt>
      <trkpt lat="45.74604" lon="2.9701">
        <ele>942.911011</ele>
        <time>2011-11-12T14:33:56Z</time>
      </trkpt>
      <trkpt lat="45.74513" lon="2.96987">
        <ele>950.552307</ele>
        <time>2011-11-12T14:34:25Z</time>
      </trkpt>
      <trkpt lat="45.74422" lon="2.96949">
        <ele>954.118713</ele>
        <time>2011-11-12T14:34:53Z</time>
      </trkpt>
      <trkpt lat="45.74335" lon="2.9691">
        <ele>955.816101</ele>
        <time>2011-11-12T14:35:17Z</time>
      </trkpt>
      <trkpt lat="45.74252" lon="2.9685">
        <ele>961.045166</ele>
        <time>2011-11-12T14:35:40Z</time>
      </trkpt>
      <trkpt lat="45.74173" lon="2.96784">
        <ele>958.332581</ele>
        <time>2011-11-12T14:36:01Z</time>
      </trkpt>
      <trkpt lat="45.74111" lon="2.9669">
        <ele>962.873047</ele>
        <time>2011-11-12T14:36:25Z</time>
      </trkpt>
      <trkpt lat="45.74032" lon="2.96628">
        <ele>971.470764</ele>
        <time>2011-11-12T14:36:58Z</time>
      </trkpt>
      <trkpt lat="45.73945" lon="2.96589">
        <ele>986.039368</ele>
        <time>2011-11-12T14:37:48Z</time>
      </trkpt>
      <trkpt lat="45.73855" lon="2.9659">
        <ele>986.051941</ele>
        <time>2011-11-12T14:38:30Z</time>
      </trkpt>
      <trkpt lat="45.73772" lon="2.96534">
        <ele>982.334045</ele>
        <time>2011-11-12T14:39:06Z</time>
      </trkpt>
      <trkpt lat="45.7369" lon="2.96477">
        <ele>987.527771</ele>
        <time>2011-11-12T14:39:35Z</time>
      </trkpt>
      <trkpt lat="45.73607" lon="2.96424">
        <ele>987.283875</ele>
        <time>2011-11-12T14:40:01Z</time>
      </trkpt>
      <trkpt lat="45.7352" lon="2.96374">
        <ele>992.02301</ele>
        <time>2011-11-12T14:40:28Z</time>
      </trkpt>
      <trkpt lat="45.73432" lon="2.96333">
        <ele>990.990784</ele>
        <time>2011-11-12T14:40:53Z</time>
      </trkpt>
      <trkpt lat="45.73344" lon="2.96296">
        <ele>986.736389</ele>
        <time>2011-11-12T14:41:19Z</time>
      </trkpt>
      <trkpt lat="45.73259" lon="2.96252">
        <ele>1001.108948</ele>
        <time>2011-11-12T14:41:47Z</time>
      </trkpt>
      <trkpt lat="45.73177" lon="2.96192">
        <ele>998.262878</ele>
        <time>2011-11-12T14:42:15Z</time>
      </trkpt>
      <trkpt lat="45.73091" lon="2.96153">
        <ele>1007.658752</ele>
        <time>2011-11-12T14:42:53Z</time>
      </trkpt>
      <trkpt lat="45.73013" lon="2.96087">
        <ele>1008.913879</ele>
        <time>2011-11-12T14:43:41Z</time>
      </trkpt>
      <trkpt lat="45.72963" lon="2.95979">
        <ele>1016.225037</ele>
        <time>2011-11-12T14:44:35Z</time>
      </trkpt>
      <trkpt lat="45.72885" lon="2.95909">
        <ele>1039.363281</ele>
        <time>2011-11-12T14:45:30Z</time>
      </trkpt>
      <trkpt lat="45.72833" lon="2.95803">
        <ele>1034.185303</ele>
        <time>2011-11-12T14:46:21Z</time>
      </trkpt>
      <trkpt lat="45.72766" lon="2.95714">
        <ele>1039.315063</ele>
        <time>2011-11-12T14:47:02Z</time>
      </trkpt>
      <trkpt lat="45.72688" lon="2.95649">
        <ele>1056.495117</ele>
        <time>2011-11-12T14:47:44Z</time>
      </trkpt>
      <trkpt lat="45.72598" lon="2.95644">
        <ele>1068.115234</ele>
        <time>2011-11-12T14:48:27Z</time>
      </trkpt>
      <trkpt lat="45.72521" lon="2.95577">
        <ele>1066.026489</ele>
        <time>2011-11-12T14:48:49Z</time>
      </trkpt>
      <trkpt lat="45.72445" lon="2.95501">
        <ele>1069.635864</ele>
        <time>2011-11-12T14:49:19Z</time>
      </trkpt>
      <trkpt lat="45.7238" lon="2.95412">
        <ele>1067.356567</ele>
        <time>2011-11-12T14:50:02Z</time>
      </trkpt>
      <trkpt lat="45.72311" lon="2.95326">
        <ele>1082.832886</ele>
        <time>2011-11-12T14:50:50Z</time>
      </trkpt>
      <trkpt lat="45.72239" lon="2.95249">
        <ele>1085.682983</ele>
        <time>2011-11-12T14:51:35Z</time>
      </trkpt>
      <trkpt lat="45.72156" lon="2.95191">
        <ele>1091.217773</ele>
        <time>2011-11-12T14:52:20Z</time>
      </trkpt>
      <trkpt lat="45.72065" lon="2.95145">
        <ele>1081.865967</ele>
        <time>2011-11-12T14:52:36Z</time>
      </trkpt>
      <trkpt lat="45.7198" lon="2.95095">
        <ele>1064.14624</ele>
        <time>2011-11-12T14:52:50Z</time>
      </trkpt>
      <trkpt lat="45.71896" lon="2.95049">
        <ele>1067.401733</ele>
        <time>2011-11-12T14:53:06Z</time>
      </trkpt>
      <trkpt lat="45.71818" lon="2.9498">
        <ele>1067.113403</ele>
        <time>2011-11-12T14:53:23Z</time>
      </trkpt>
      <trkpt lat="45.71738" lon="2.94916">
        <ele>1062.108398</ele>
        <time>2011-11-12T14:53:57Z</time>
      </trkpt>
      <trkpt lat="45.71649" lon="2.94873">
        <ele>1058.161621</ele>
        <time>2011-11-12T14:54:40Z</time>
      </trkpt>
      <trkpt lat="45.7156" lon="2.94843">
        <ele>1057.192139</ele>
        <time>2011-11-12T14:55:20Z</time>
      </trkpt>
      <trkpt lat="45.71472" lon="2.94806">
        <ele>1040.864136</ele>
        <time>2011-11-12T14:55:41Z</time>
      </trkpt>
      <trkpt lat="45.7139" lon="2.9475">
        <ele>1034.388672</ele>
        <time>2011-11-12T14:56:03Z</time>
      </trkpt>
      <trkpt lat="45.71307" lon="2.947">
        <ele>1035.480347</ele>
        <time>2011-11-12T14:56:31Z</time>
      </trkpt>
      <trkpt lat="45.71224" lon="2.94639">
        <ele>1036.909424</ele>
        <time>2011-11-12T14:57:13Z</time>
      </trkpt>
      <trkpt lat="45.71163" lon="2.94536">
        <ele>1034.405518</ele>
        <time>2011-11-12T14:57:37Z</time>
      </trkpt>
      <trkpt lat="45.71106" lon="2.94435">
        <ele>1041.226685</ele>
        <time>2011-11-12T14:57:56Z</time>
      </trkpt>
      <trkpt lat="45.71056" lon="2.94319">
        <ele>1029.739502</ele>
        <time>2011-11-12T15:02:05Z</time>
      </trkpt>
      <trkpt lat="45.70991" lon="2.94226">
        <ele>1034.075317</ele>
        <time>2011-11-12T15:02:24Z</time>
      </trkpt>
      <trkpt lat="45.70927" lon="2.94135">
        <ele>1037.297241</ele>
        <time>2011-11-12T15:02:46Z</time>
      </trkpt>
      <trkpt lat="45.70857" lon="2.94053">
        <ele>1037.052368</ele>
        <time>2011-11-12T15:03:06Z</time>
      </trkpt>
      <trkpt lat="45.70784" lon="2.93967">
        <ele>1030.915527</ele>
        <time>2011-11-12T15:03:24Z</time>
      </trkpt>
      <trkpt lat="45.70718" lon="2.93874">
        <ele>1034.985718</ele>
        <time>2011-11-12T15:03:42Z</time>
      </trkpt>
      <trkpt lat="45.70786" lon="2.93965">
        <ele>1031.986572</ele>
        <time>2011-11-12T15:09:09Z</time>
      </trkpt>
      <trkpt lat="45.70853" lon="2.94053">
        <ele>1032.828247</ele>
        <time>2011-11-12T15:09:31Z</time>
      </trkpt>
      <trkpt lat="45.70926" lon="2.94132">
        <ele>1035.767578</ele>
        <time>2011-11-12T15:09:56Z</time>
      </trkpt>
      <trkpt lat="45.70991" lon="2.94224">
        <ele>1034.85144</ele>
        <time>2011-11-12T15:10:11Z</time>
      </trkpt>
      <trkpt lat="45.71037" lon="2.94336">
        <ele>1040.634033</ele>
        <time>2011-11-12T15:10:37Z</time>
      </trkpt>
      <trkpt lat="45.70993" lon="2.94453">
        <ele>1042.644287</ele>
        <time>2011-11-12T15:11:08Z</time>
      </trkpt>
      <trkpt lat="45.7094" lon="2.94556">
        <ele>1040.087036</ele>
        <time>2011-11-12T15:11:34Z</time>
      </trkpt>
      <trkpt lat="45.70878" lon="2.94652">
        <ele>1044.597168</ele>
        <time>2011-11-12T15:11:59Z</time>
      </trkpt>
      <trkpt lat="45.70813" lon="2.94744">
        <ele>1040.684326</ele>
        <time>2011-11-12T15:12:19Z</time>
      </trkpt>
      <trkpt lat="45.70742" lon="2.94832">
        <ele>1047.122314</ele>
        <time>2011-11-12T15:12:37Z</time>
      </trkpt>
      <trkpt lat="45.70704" lon="2.94954">
        <ele>1041.636108</ele>
        <time>2011-11-12T15:12:55Z</time>
      </trkpt>
      <trkpt lat="45.70679" lon="2.95081">
        <ele>1038.027832</ele>
        <time>2011-11-12T15:13:11Z</time>
      </trkpt>
      <trkpt lat="45.7066" lon="2.95208">
        <ele>1034.571167</ele>
        <time>2011-11-12T15:13:27Z</time>
      </trkpt>
      <trkpt lat="45.70594" lon="2.953">
        <ele>1020.203796</ele>
        <time>2011-11-12T15:14:15Z</time>
      </trkpt>
      <trkpt lat="45.70518" lon="2.95373">
        <ele>1004.603455</ele>
        <time>2011-11-12T15:14:47Z</time>
      </trkpt>
      <trkpt lat="45.70471" lon="2.95488">
        <ele>997.809143</ele>
        <time>2011-11-12T15:15:09Z</time>
      </trkpt>
      <trkpt lat="45.70432" lon="2.95612">
        <ele>987.079041</ele>
        <time>2011-11-12T15:15:24Z</time>
      </trkpt>
      <trkpt lat="45.70372" lon="2.95707">
        <ele>985.749817</ele>
        <time>2011-11-12T15:15:44Z</time>
      </trkpt>
      <trkpt lat="45.70329" lon="2.95822">
        <ele>987.12677</ele>
        <time>2011-11-12T15:16:10Z</time>
      </trkpt>
      <trkpt lat="45.70273" lon="2.95924">
        <ele>986.436707</ele>
        <time>2011-11-12T15:20:17Z</time>
      </trkpt>
      <trkpt lat="45.70209" lon="2.96015">
        <ele>990.759705</ele>
        <time>2011-11-12T15:20:53Z</time>
      </trkpt>
      <trkpt lat="45.70146" lon="2.96111">
        <ele>987.781433</ele>
        <time>2011-11-12T15:21:14Z</time>
      </trkpt>
      <trkpt lat="45.70094" lon="2.9622">
        <ele>992.285339</ele>
        <time>2011-11-12T15:21:37Z</time>
      </trkpt>
      <trkpt lat="45.7007" lon="2.96348">
        <ele>992.541321</ele>
        <time>2011-11-12T15:22:01Z</time>
      </trkpt>
      <trkpt lat="45.70071" lon="2.96487">
        <ele>987.962463</ele>
        <time>2011-11-12T15:22:15Z</time>
      </trkpt>
      <trkpt lat="45.7012" lon="2.966">
        <ele>979.48114</ele>
        <time>2011-11-12T15:22:31Z</time>
      </trkpt>
      <trkpt lat="45.70159" lon="2.96718">
        <ele>976.386658</ele>
        <time>2011-11-12T15:23:09Z</time>
      </trkpt>
      <trkpt lat="45.70239" lon="2.96786">
        <ele>989.351013</ele>
        <time>2011-11-12T15:23:39Z</time>
      </trkpt>
      <trkpt lat="45.70324" lon="2.96842">
        <ele>980.445984</ele>
        <time>2011-11-12T15:24:02Z</time>
      </trkpt>
      <trkpt lat="45.70414" lon="2.96866">
        <ele>974.99054</ele>
        <time>2011-11-12T15:24:28Z</time>
      </trkpt>
      <trkpt lat="45.70492" lon="2.96933">
        <ele>970.840027</ele>
        <time>2011-11-12T15:24:46Z</time>
      </trkpt>
      <trkpt lat="45.7057" lon="2.97015">
        <ele>967.057861</ele>
        <time>2011-11-12T15:25:01Z</time>
      </trkpt>
      <trkpt lat="45.7065" lon="2.97076">
        <ele>965.203613</ele>
        <time>2011-11-12T15:25:16Z</time>
      </trkpt>
      <trkpt lat="45.7074" lon="2.97061">
        <ele>957.616638</ele>
        <time>2011-11-12T15:25:32Z</time>
      </trkpt>
      <trkpt lat="45.70819" lon="2.97134">
        <ele>953.72583</ele>
        <time>2011-11-12T15:27:41Z</time>
      </trkpt>
      <trkpt lat="45.70877" lon="2.97232">
        <ele>956.400757</ele>
        <time>2011-11-12T15:28:03Z</time>
      </trkpt>
      <trkpt lat="45.7091" lon="2.97352">
        <ele>953.756104</ele>
        <time>2011-11-12T15:28:16Z</time>
      </trkpt>
      <trkpt lat="45.70968" lon="2.97451">
        <ele>944.1922</ele>
        <time>2011-11-12T15:28:25Z</time>
      </trkpt>
      <trkpt lat="45.7103" lon="2.97549">
        <ele>948.453796</ele>
        <time>2011-11-12T15:28:34Z</time>
      </trkpt>
      <trkpt lat="45.71069" lon="2.9767">
        <ele>946.22113</ele>
        <time>2011-11-12T15:28:46Z</time>
      </trkpt>
      <trkpt lat="45.711" lon="2.97792">
        <ele>935.611938</ele>
        <time>2011-11-12T15:28:59Z</time>
      </trkpt>
      <trkpt lat="45.71117" lon="2.97928">
        <ele>941.844543</ele>
        <time>2011-11-12T15:29:12Z</time>
      </trkpt>
      <trkpt lat="45.71134" lon="2.9806">
        <ele>937.652893</ele>
        <time>2011-11-12T15:29:26Z</time>
      </trkpt>
      <trkpt lat="45.7116" lon="2.98186">
        <ele>935.307495</ele>
        <time>2011-11-12T15:29:38Z</time>
      </trkpt>
      <trkpt lat="45.71194" lon="2.98065">
        <ele>936.191528</ele>
        <time>2011-11-12T15:32:43Z</time>
      </trkpt>
      <trkpt lat="45.71228" lon="2.97945">
        <ele>936.313904</ele>
        <time>2011-11-12T15:33:32Z</time>
      </trkpt>
      <trkpt lat="45.71298" lon="2.97863">
        <ele>950.993591</ele>
        <time>2011-11-12T15:34:19Z</time>
      </trkpt>
      <trkpt lat="45.71366" lon="2.97778">
        <ele>957.419861</ele>
        <time>2011-11-12T15:34:51Z</time>
      </trkpt>
      <trkpt lat="45.71414" lon="2.97667">
        <ele>960.887756</ele>
        <time>2011-11-12T15:35:28Z</time>
      </trkpt>
      <trkpt lat="45.71439" lon="2.97541">
        <ele>948.915771</ele>
        <time>2011-11-12T15:35:53Z</time>
      </trkpt>
      <trkpt lat="45.71501" lon="2.97446">
        <ele>949.000427</ele>
        <time>2011-11-12T15:36:27Z</time>
      </trkpt>
      <trkpt lat="45.71592" lon="2.97417">
        <ele>951.240173</ele>
        <time>2011-11-12T15:36:48Z</time>
      </trkpt>
      <trkpt lat="45.71672" lon="2.97351">
        <ele>940.661987</ele>
        <time>2011-11-12T15:37:06Z</time>
      </trkpt>
      <trkpt lat="45.71722" lon="2.9746">
        <ele>928.085632</ele>
        <time>2011-11-12T15:40:33Z</time>
      </trkpt>
      <trkpt lat="45.7178" lon="2.9756">
        <ele>921.397339</ele>
        <time>2011-11-12T15:40:53Z</time>
      </trkpt>
      <trkpt lat="45.71853" lon="2.9764">
        <ele>920.930176</ele>
        <time>2011-11-12T15:41:13Z</time>
      </trkpt>
      <trkpt lat="45.71932" lon="2.97707">
        <ele>919.636108</ele>
        <time>2011-11-12T15:41:40Z</time>
      </trkpt>
      <trkpt lat="45.72015" lon="2.97763">
        <ele>926.269653</ele>
        <time>2011-11-12T15:42:03Z</time>
      </trkpt>
      <trkpt lat="45.72102" lon="2.97807">
        <ele>923.07782</ele>
        <time>2011-11-12T15:42:26Z</time>
      </trkpt>
      <trkpt lat="45.72185" lon="2.97863">
        <ele>922.208191</ele>
        <time>2011-11-12T15:42:45Z</time>
      </trkpt>
      <trkpt lat="45.72265" lon="2.97797">
        <ele>926.109314</ele>
        <time>2011-11-12T15:47:10Z</time>
      </trkpt>
      <trkpt lat="45.72339" lon="2.97716">
        <ele>929.209534</ele>
        <time>2011-11-12T15:47:35Z</time>
      </trkpt>
      <trkpt lat="45.72414" lon="2.97636">
        <ele>933.353943</ele>
        <time>2011-11-12T15:47:57Z</time>
      </trkpt>
      <trkpt lat="45.72481" lon="2.9755">
        <ele>933.503174</ele>
        <time>2011-11-12T15:48:22Z</time>
      </trkpt>
      <trkpt lat="45.72553" lon="2.9747">
        <ele>946.499207</ele>
        <time>2011-11-12T15:49:07Z</time>
      </trkpt>
      <trkpt lat="45.72636" lon="2.97422">
        <ele>943.831116</ele>
        <time>2011-11-12T15:49:41Z</time>
      </trkpt>
      <trkpt lat="45.72721" lon="2.97375">
        <ele>945.88385</ele>
        <time>2011-11-12T15:50:10Z</time>
      </trkpt>
      <trkpt lat="45.72806" lon="2.9733">
        <ele>948.71521</ele>
        <time>2011-11-12T15:50:35Z</time>
      </trkpt>
      <trkpt lat="45.72894" lon="2.97296">
        <ele>957.242859</ele>
        <time>2011-11-12T15:51:09Z</time>
      </trkpt>
      <trkpt lat="45.72967" lon="2.9738">
        <ele>953.960693</ele>
        <time>2011-11-12T15:51:49Z</time>
      </trkpt>
      <trkpt lat="45.73022" lon="2.97277">
        <ele>961.6651</ele>
        <time>2011-11-12T15:52:40Z</time>
      </trkpt>
      <trkpt lat="45.73112" lon="2.97254">
        <ele>966.869446</ele>
        <time>2011-11-12T15:53:15Z</time>
      </trkpt>
      <trkpt lat="45.73202" lon="2.97231">
        <ele>968.270081</ele>
        <time>2011-11-12T15:53:45Z</time>
      </trkpt>
      <trkpt lat="45.7329" lon="2.97192">
        <ele>972.331299</ele>
        <time>2011-11-12T15:54:14Z</time>
      </trkpt>
      <trkpt lat="45.73381" lon="2.9719">
        <ele>973.580322</ele>
        <time>2011-11-12T15:54:36Z</time>
      </trkpt>
      <trkpt lat="45.73471" lon="2.97153">
        <ele>972.832947</ele>
        <time>2011-11-12T15:54:54Z</time>
      </trkpt>
      <trkpt lat="45.73561" lon="2.97116">
        <ele>972.554932</ele>
        <time>2011-11-12T15:55:10Z</time>
      </trkpt>
      <trkpt lat="45.7365" lon="2.97085">
        <ele>971.03302</ele>
        <time>2011-11-12T15:55:27Z</time>
      </trkpt>
      <trkpt lat="45.73739" lon="2.97051">
        <ele>975.32074</ele>
        <time>2011-11-12T15:55:46Z</time>
      </trkpt>
      <trkpt lat="45.73828" lon="2.97012">
        <ele>977.781067</ele>
        <time>2011-11-12T15:56:03Z</time>
      </trkpt>
      <trkpt lat="45.73911" lon="2.96955">
        <ele>978.220764</ele>
        <time>2011-11-12T15:56:21Z</time>
      </trkpt>
      <trkpt lat="45.73973" lon="2.96856">
        <ele>976.253723</ele>
        <time>2011-11-12T15:56:39Z</time>
      </trkpt>
      <trkpt lat="45.73998" lon="2.96725">
        <ele>976.732727</ele>
        <time>2011-11-12T15:56:56Z</time>
      </trkpt>
      <trkpt lat="45.74055" lon="2.96625">
        <ele>971.889709</ele>
        <time>2011-11-12T15:57:15Z</time>
      </trkpt>
      <trkpt lat="45.74121" lon="2.96724">
        <ele>960.301086</ele>
        <time>2011-11-12T15:57:33Z</time>
      </trkpt>
      <trkpt lat="45.74198" lon="2.96802">
        <ele>961.402527</ele>
        <time>2011-11-12T15:57:50Z</time>
      </trkpt>
      <trkpt lat="45.74278" lon="2.96878">
        <ele>958.201721</ele>
        <time>2011-11-12T15:58:05Z</time>
      </trkpt>
      <trkpt lat="45.74364" lon="2.96925">
        <ele>958.597778</ele>
        <time>2011-11-12T15:58:19Z</time>
      </trkpt>
      <trkpt lat="45.74454" lon="2.96964">
        <ele>951.907959</ele>
        <time>2011-11-12T15:58:32Z</time>
      </trkpt>
      <trkpt lat="45.74542" lon="2.96994">
        <ele>948.993347</ele>
        <time>2011-11-12T15:58:44Z</time>
      </trkpt>
      <trkpt lat="45.74633" lon="2.97004">
        <ele>944.203857</ele>
        <time>2011-11-12T15:58:58Z</time>
      </trkpt>
      <trkpt lat="45.74722" lon="2.96956">
        <ele>946.371643</ele>
        <time>2011-11-12T15:59:09Z</time>
      </trkpt>
      <trkpt lat="45.74808" lon="2.96912">
        <ele>941.55188</ele>
        <time>2011-11-12T15:59:19Z</time>
      </trkpt>
      <trkpt lat="45.74899" lon="2.96875">
        <ele>944.583496</ele>
        <time>2011-11-12T15:59:30Z</time>
      </trkpt>
      <trkpt lat="45.74994" lon="2.96853">
        <ele>946.518066</ele>
        <time>2011-11-12T15:59:41Z</time>
      </trkpt>
      <trkpt lat="45.75083" lon="2.96827">
        <ele>941.372498</ele>
        <time>2011-11-12T15:59:54Z</time>
      </trkpt>
      <trkpt lat="45.75171" lon="2.96797">
        <ele>944.128296</ele>
        <time>2011-11-12T16:00:11Z</time>
      </trkpt>
      <trkpt lat="45.75263" lon="2.9679">
        <ele>948.829529</ele>
        <time>2011-11-12T16:00:36Z</time>
      </trkpt>
      <trkpt lat="45.75325" lon="2.96891">
        <ele>948.675842</ele>
        <time>2011-11-12T16:01:04Z</time>
      </trkpt>
      <trkpt lat="45.7538" lon="2.96998">
        <ele>949.127625</ele>
        <time>2011-11-12T16:01:21Z</time>
      </trkpt>
      <trkpt lat="45.75433" lon="2.97105">
        <ele>950.838135</ele>
        <time>2011-11-12T16:01:33Z</time>
      </trkpt>
      <trkpt lat="45.7549" lon="2.97217">
        <ele>949.023254</ele>
        <time>2011-11-12T16:01:45Z</time>
      </trkpt>
      <trkpt lat="45.75545" lon="2.97323">
        <ele>948.079834</ele>
        <time>2011-11-12T16:01:56Z</time>
      </trkpt>
      <trkpt lat="45.75598" lon="2.97442">
        <ele>946.866638</ele>
        <time>2011-11-12T16:02:06Z</time>
      </trkpt>
      <trkpt lat="45.75648" lon="2.97559">
        <ele>941.10437</ele>
        <time>2011-11-12T16:02:16Z</time>
      </trkpt>
      <trkpt lat="45.75698" lon="2.97666">
        <ele>941.657532</ele>
        <time>2011-11-12T16:02:25Z</time>
      </trkpt>
      <trkpt lat="45.75751" lon="2.97774">
        <ele>935.176697</ele>
        <time>2011-11-12T16:02:36Z</time>
      </trkpt>
      <trkpt lat="45.75814" lon="2.97881">
        <ele>927.132935</ele>
        <time>2011-11-12T16:02:50Z</time>
      </trkpt>
      <trkpt lat="45.75886" lon="2.97975">
        <ele>911.29895</ele>
        <time>2011-11-12T16:02:59Z</time>
      </trkpt>
      <trkpt lat="45.75962" lon="2.98062">
        <ele>903.172791</ele>
        <time>2011-11-12T16:03:08Z</time>
      </trkpt>
      <trkpt lat="45.76026" lon="2.98155">
        <ele>901.381287</ele>
        <time>2011-11-12T16:07:08Z</time>
      </trkpt>
      <trkpt lat="45.76075" lon="2.98263">
        <ele>896.033875</ele>
        <time>2011-11-12T16:07:27Z</time>
      </trkpt>
      <trkpt lat="45.76164" lon="2.98233">
        <ele>900.970947</ele>
        <time>2011-11-12T16:08:09Z</time>
      </trkpt>
      <trkpt lat="45.76249" lon="2.98187">
        <ele>907.974792</ele>
        <time>2011-11-12T16:08:46Z</time>
      </trkpt>
      <trkpt lat="45.76292" lon="2.98072">
        <ele>909.955994</ele>
        <time>2011-11-12T16:09:27Z</time>
      </trkpt>
      <trkpt lat="45.76365" lon="2.97997">
        <ele>916.059265</ele>
        <time>2011-11-12T16:10:20Z</time>
      </trkpt>
      <trkpt lat="45.76449" lon="2.97942">
        <ele>932.112854</ele>
        <time>2011-11-12T16:11:06Z</time>
      </trkpt>
      <trkpt lat="45.76538" lon="2.97906">
        <ele>931.039368</ele>
        <time>2011-11-12T16:11:48Z</time>
      </trkpt>
      <trkpt lat="45.76627" lon="2.97882">
        <ele>929.289246</ele>
        <time>2011-11-12T16:12:28Z</time>
      </trkpt>
      <trkpt lat="45.76717" lon="2.979">
        <ele>929.899048</ele>
        <time>2011-11-12T16:13:05Z</time>
      </trkpt>
      <trkpt lat="45.76807" lon="2.97921">
        <ele>940.122925</ele>
        <time>2011-11-12T16:13:33Z</time>
      </trkpt>
      <trkpt lat="45.76898" lon="2.97956">
        <ele>932.127014</ele>
        <time>2011-11-12T16:13:55Z</time>
      </trkpt>
      <trkpt lat="45.76988" lon="2.97968">
        <ele>922.593506</ele>
        <time>2011-11-12T16:14:14Z</time>
      </trkpt>
      <trkpt lat="45.77072" lon="2.98025">
        <ele>924.52478</ele>
        <time>2011-11-12T16:14:39Z</time>
      </trkpt>
      <trkpt lat="45.77153" lon="2.98087">
        <ele>922.612854</ele>
        <time>2011-11-12T16:15:09Z</time>
      </trkpt>
      <trkpt lat="45.77229" lon="2.98164">
        <ele>929.017456</ele>
        <time>2011-11-12T16:15:27Z</time>
      </trkpt>
      <trkpt lat="45.77317" lon="2.98211">
        <ele>926.292786</ele>
        <time>2011-11-12T16:15:42Z</time>
      </trkpt>
      <trkpt lat="45.77403" lon="2.98263">
        <ele>916.08429</ele>
        <time>2011-11-12T16:15:56Z</time>
      </trkpt>
      <trkpt lat="45.77495" lon="2.9829">
        <ele>914.72821</ele>
        <time>2011-11-12T16:16:13Z</time>
      </trkpt>
      <trkpt lat="45.7758" lon="2.98339">
        <ele>917.866638</ele>
        <time>2011-11-12T16:16:28Z</time>
      </trkpt>
      <trkpt lat="45.77658" lon="2.98409">
        <ele>914.593628</ele>
        <time>2011-11-12T16:16:47Z</time>
      </trkpt>
      <trkpt lat="45.77743" lon="2.98455">
        <ele>927.295044</ele>
        <time>2011-11-12T16:17:09Z</time>
      </trkpt>
      <trkpt lat="45.77829" lon="2.98508">
        <ele>931.026245</ele>
        <time>2011-11-12T16:17:29Z</time>
      </trkpt>
      <trkpt lat="45.77911" lon="2.98561">
        <ele>924.877686</ele>
        <time>2011-11-12T16:17:46Z</time>
      </trkpt>
      <trkpt lat="45.78" lon="2.98592">
        <ele>921.933899</ele>
        <time>2011-11-12T16:18:03Z</time>
      </trkpt>
      <trkpt lat="45.78094" lon="2.98593">
        <ele>920.181274</ele>
        <time>2011-11-12T16:18:20Z</time>
      </trkpt>
      <trkpt lat="45.78189" lon="2.98589">
        <ele>925.027649</ele>
        <time>2011-11-12T16:18:40Z</time>
      </trkpt>
      <trkpt lat="45.78278" lon="2.98546">
        <ele>922.73175</ele>
        <time>2011-11-12T16:19:01Z</time>
      </trkpt>
      <trkpt lat="45.78368" lon="2.98532">
        <ele>921.080139</ele>
        <time>2011-11-12T16:19:22Z</time>
      </trkpt>
      <trkpt lat="45.78457" lon="2.98512">
        <ele>916.208984</ele>
        <time>2011-11-12T16:19:43Z</time>
      </trkpt>
      <trkpt lat="45.78542" lon="2.98449">
        <ele>930.512695</ele>
        <time>2011-11-12T16:20:05Z</time>
      </trkpt>
      <trkpt lat="45.78631" lon="2.98424">
        <ele>926.093567</ele>
        <time>2011-11-12T16:20:28Z</time>
      </trkpt>
      <trkpt lat="45.78724" lon="2.9842">
        <ele>931.561646</ele>
        <time>2011-11-12T16:20:49Z</time>
      </trkpt>
      <trkpt lat="45.78815" lon="2.98435">
        <ele>929.792358</ele>
        <time>2011-11-12T16:21:07Z</time>
      </trkpt>
      <trkpt lat="45.78818" lon="2.98566">
        <ele>938.142517</ele>
        <time>2011-11-12T16:21:38Z</time>
      </trkpt>
      <trkpt lat="45.78805" lon="2.98699">
        <ele>937.672791</ele>
        <time>2011-11-12T16:21:57Z</time>
      </trkpt>
      <trkpt lat="45.7879" lon="2.98833">
        <ele>941.410095</ele>
        <time>2011-11-12T16:22:15Z</time>
      </trkpt>
      <trkpt lat="45.78808" lon="2.98963">
        <ele>934.178101</ele>
        <time>2011-11-12T16:22:31Z</time>
      </trkpt>
      <trkpt lat="45.78872" lon="2.99061">
        <ele>931.747009</ele>
        <time>2011-11-12T16:22:46Z</time>
      </trkpt>
      <trkpt lat="45.78863" lon="2.99192">
        <ele>929.344666</ele>
        <time>2011-11-12T16:22:59Z</time>
      </trkpt>
      <trkpt lat="45.7884" lon="2.99322">
        <ele>923.765259</ele>
        <time>2011-11-12T16:23:09Z</time>
      </trkpt>
      <trkpt lat="45.78846" lon="2.99465">
        <ele>914.78302</ele>
        <time>2011-11-12T16:23:19Z</time>
      </trkpt>
      <trkpt lat="45.78845" lon="2.99597">
        <ele>904.564087</ele>
        <time>2011-11-12T16:23:28Z</time>
      </trkpt>
    </trkseg>
  </trk>
</gpx>